LIEO/OLB METAR and TAF weather

Enter ICAO airport designator
Station Type Date Time Source
LIEO METAR 2024/04/17 17:50 UTC NOAA

LIEO 171750Z 27014G26KT 9999 FEW040 15/06 Q1007


Station Type Date Time Source
LIEO Decoded METAR 2024/04/17 17:50 UTC NOAA

Olbia / Costa Smeralda, Italy (LIEO) 40-54N 009-31E 13M
Apr 17, 2024 - 01:50 PM EDT / 2024.04.17 1750 UTC
Wind: from the W (270 degrees) at 16 MPH (14 KT) gusting to 30 MPH (26 KT):0
Visibility: greater than 7 mile(s):0
Sky conditions: mostly clear
Temperature: 59 F (15 C)
Dew Point: 42 F (6 C)
Relative Humidity: 54%
Pressure (altimeter): 29.74 in. Hg (1007 hPa)
ob: LIEO 171750Z 27014G26KT 9999 FEW040 15/06 Q1007
cycle: 18

Station Type Date Time Source
LIEO TAF 2024/04/17 18:27 UTC NOAA